sensor_id;sensor_type;location;lat;lon;timestamp;temperature;humidity
10572;DHT22;5334;48.928;12.704;2023-05-16T00:02:42;10.90;99.90
10572;DHT22;5334;48.928;12.704;2023-05-16T00:05:08;10.80;99.90
10572;DHT22;5334;48.928;12.704;2023-05-16T00:07:35;10.80;99.90
10572;DHT22;5334;48.928;12.704;2023-05-16T00:10:01;10.80;99.90
10572;DHT22;5334;48.928;12.704;2023-05-16T00:12:27;10.70;99.90
10572;DHT22;5334;48.928;12.704;2023-05-16T00:14:53;10.70;99.90
10572;DHT22;5334;48.928;12.704;2023-05-16T00:19:46;10.70;99.90
10572;DHT22;5334;48.928;12.704;2023-05-16T00:22:16;10.70;99.90
10572;DHT22;5334;48.928;12.704;2023-05-16T00:24:42;10.70;99.90
10572;DHT22;5334;48.928;12.704;2023-05-16T00:27:07;10.80;99.90
10572;DHT22;5334;48.928;12.704;2023-05-16T00:29:34;10.70;99.90
10572;DHT22;5334;48.928;12.704;2023-05-16T00:32:00;10.70;99.90
10572;DHT22;5334;48.928;12.704;2023-05-16T00:34:25;10.70;99.90
10572;DHT22;5334;48.928;12.704;2023-05-16T00:36:52;10.70;99.90
10572;DHT22;5334;48.928;12.704;2023-05-16T00:39:18;10.70;99.90
10572;DHT22;5334;48.928;12.704;2023-05-16T00:41:44;10.70;99.90
10572;DHT22;5334;48.928;12.704;2023-05-16T00:44:10;10.70;99.90
10572;DHT22;5334;48.928;12.704;2023-05-16T00:46:36;10.70;99.90
10572;DHT22;5334;48.928;12.704;2023-05-16T00:49:02;10.70;99.90
10572;DHT22;5334;48.928;12.704;2023-05-16T00:51:28;10.70;99.90
10572;DHT22;5334;48.928;12.704;2023-05-16T00:53:54;10.70;99.90
10572;DHT22;5334;48.928;12.704;2023-05-16T00:56:21;10.70;99.90
10572;DHT22;5334;48.928;12.704;2023-05-16T00:58:47;10.70;99.90
10572;DHT22;5334;48.928;12.704;2023-05-16T01:01:13;10.70;99.90
10572;DHT22;5334;48.928;12.704;2023-05-16T01:06:05;10.60;99.90
10572;DHT22;5334;48.928;12.704;2023-05-16T01:08:32;10.50;99.90
10572;DHT22;5334;48.928;12.704;2023-05-16T01:13:32;10.20;99.90
10572;DHT22;5334;48.928;12.704;2023-05-16T01:16:07;10.10;99.90
10572;DHT22;5334;48.928;12.704;2023-05-16T01:21:15;10.10;99.90
10572;DHT22;5334;48.928;12.704;2023-05-16T01:24:03;10.00;99.90
10572;DHT22;5334;48.928;12.704;2023-05-16T01:26:30;10.00;99.90
10572;DHT22;5334;48.928;12.704;2023-05-16T01:28:57;10.00;99.90
10572;DHT22;5334;48.928;12.704;2023-05-16T01:31:23;10.00;99.90
10572;DHT22;5334;48.928;12.704;2023-05-16T01:33:49;10.10;99.90
10572;DHT22;5334;48.928;12.704;2023-05-16T01:36:28;10.10;99.90
10572;DHT22;5334;48.928;12.704;2023-05-16T01:39:16;10.20;99.90
10572;DHT22;5334;48.928;12.704;2023-05-16T01:42:11;10.20;99.90
10572;DHT22;5334;48.928;12.704;2023-05-16T01:44:44;10.10;99.90
10572;DHT22;5334;48.928;12.704;2023-05-16T01:47:12;10.10;99.90
10572;DHT22;5334;48.928;12.704;2023-05-16T01:49:50;10.10;99.90
10572;DHT22;5334;48.928;12.704;2023-05-16T01:55:14;10.10;99.90
10572;DHT22;5334;48.928;12.704;2023-05-16T01:57:41;10.10;99.90
10572;DHT22;5334;48.928;12.704;2023-05-16T02:00:08;10.10;99.90
10572;DHT22;5334;48.928;12.704;2023-05-16T02:02:34;10.10;99.90
10572;DHT22;5334;48.928;12.704;2023-05-16T02:05:00;10.20;99.90
10572;DHT22;5334;48.928;12.704;2023-05-16T02:07:26;10.20;99.90
10572;DHT22;5334;48.928;12.704;2023-05-16T02:09:51;10.20;99.90
10572;DHT22;5334;48.928;12.704;2023-05-16T02:12:17;10.10;99.90
10572;DHT22;5334;48.928;12.704;2023-05-16T02:14:43;10.10;99.90
10572;DHT22;5334;48.928;12.704;2023-05-16T02:17:08;10.00;99.90
10572;DHT22;5334;48.928;12.704;2023-05-16T02:22:00;9.90;99.90
10572;DHT22;5334;48.928;12.704;2023-05-16T02:24:26;9.80;99.90
10572;DHT22;5334;48.928;12.704;2023-05-16T02:26:51;9.80;99.90
10572;DHT22;5334;48.928;12.704;2023-05-16T02:29:17;9.80;99.90
10572;DHT22;5334;48.928;12.704;2023-05-16T02:31:43;9.70;99.90
10572;DHT22;5334;48.928;12.704;2023-05-16T02:34:08;9.80;99.90
10572;DHT22;5334;48.928;12.704;2023-05-16T02:36:35;9.80;99.90
10572;DHT22;5334;48.928;12.704;2023-05-16T02:39:01;9.80;99.90
10572;DHT22;5334;48.928;12.704;2023-05-16T02:41:28;9.80;99.90
10572;DHT22;5334;48.928;12.704;2023-05-16T02:43:54;9.80;99.90
10572;DHT22;5334;48.928;12.704;2023-05-16T02:46:30;9.80;99.90
10572;DHT22;5334;48.928;12.704;2023-05-16T02:48:56;9.80;99.90
10572;DHT22;5334;48.928;12.704;2023-05-16T02:51:24;9.80;99.90
10572;DHT22;5334;48.928;12.704;2023-05-16T02:53:50;9.80;99.90
10572;DHT22;5334;48.928;12.704;2023-05-16T02:56:16;9.80;99.90
10572;DHT22;5334;48.928;12.704;2023-05-16T02:58:43;9.80;99.90
10572;DHT22;5334;48.928;12.704;2023-05-16T03:01:09;9.80;99.90
10572;DHT22;5334;48.928;12.704;2023-05-16T03:03:36;9.90;99.90
10572;DHT22;5334;48.928;12.704;2023-05-16T03:06:02;9.90;99.90
10572;DHT22;5334;48.928;12.704;2023-05-16T03:08:27;9.90;99.90
10572;DHT22;5334;48.928;12.704;2023-05-16T03:10:53;9.90;99.90
10572;DHT22;5334;48.928;12.704;2023-05-16T03:13:19;9.90;99.90
10572;DHT22;5334;48.928;12.704;2023-05-16T03:15:44;9.80;99.90
10572;DHT22;5334;48.928;12.704;2023-05-16T03:18:10;9.90;99.90
10572;DHT22;5334;48.928;12.704;2023-05-16T03:20:37;9.80;99.90
10572;DHT22;5334;48.928;12.704;2023-05-16T03:23:02;9.80;99.90
10572;DHT22;5334;48.928;12.704;2023-05-16T03:25:32;9.80;99.90
10572;DHT22;5334;48.928;12.704;2023-05-16T03:27:57;9.70;99.90
10572;DHT22;5334;48.928;12.704;2023-05-16T03:30:23;9.70;99.90
10572;DHT22;5334;48.928;12.704;2023-05-16T03:32:51;9.70;99.90
10572;DHT22;5334;48.928;12.704;2023-05-16T03:35:16;9.70;99.90
10572;DHT22;5334;48.928;12.704;2023-05-16T03:37:42;9.70;99.90
10572;DHT22;5334;48.928;12.704;2023-05-16T03:40:08;9.70;99.90
10572;DHT22;5334;48.928;12.704;2023-05-16T03:42:35;9.80;99.90
10572;DHT22;5334;48.928;12.704;2023-05-16T03:45:03;9.80;99.90
10572;DHT22;5334;48.928;12.704;2023-05-16T03:47:29;9.80;99.90
10572;DHT22;5334;48.928;12.704;2023-05-16T03:49:56;9.80;99.90
10572;DHT22;5334;48.928;12.704;2023-05-16T03:52:22;9.90;99.90
10572;DHT22;5334;48.928;12.704;2023-05-16T03:54:48;9.90;99.90
10572;DHT22;5334;48.928;12.704;2023-05-16T03:57:13;9.90;99.90
10572;DHT22;5334;48.928;12.704;2023-05-16T03:59:39;9.90;99.90
10572;DHT22;5334;48.928;12.704;2023-05-16T04:02:05;9.90;99.90
10572;DHT22;5334;48.928;12.704;2023-05-16T04:04:31;9.90;99.90
10572;DHT22;5334;48.928;12.704;2023-05-16T04:06:56;9.90;99.90
10572;DHT22;5334;48.928;12.704;2023-05-16T04:09:22;9.90;99.90
10572;DHT22;5334;48.928;12.704;2023-05-16T04:11:48;9.90;99.90
10572;DHT22;5334;48.928;12.704;2023-05-16T04:14:14;10.00;99.90
10572;DHT22;5334;48.928;12.704;2023-05-16T04:16:40;10.00;99.90
10572;DHT22;5334;48.928;12.704;2023-05-16T04:19:06;10.00;99.90
10572;DHT22;5334;48.928;12.704;2023-05-16T04:21:32;10.00;99.90
10572;DHT22;5334;48.928;12.704;2023-05-16T04:24:01;10.10;99.90
10572;DHT22;5334;48.928;12.704;2023-05-16T04:26:26;10.10;99.90
10572;DHT22;5334;48.928;12.704;2023-05-16T04:28:52;10.20;99.90
10572;DHT22;5334;48.928;12.704;2023-05-16T04:31:18;10.20;99.90
10572;DHT22;5334;48.928;12.704;2023-05-16T04:33:44;10.30;99.90
10572;DHT22;5334;48.928;12.704;2023-05-16T04:36:10;10.30;99.90
10572;DHT22;5334;48.928;12.704;2023-05-16T04:38:36;10.40;99.90
10572;DHT22;5334;48.928;12.704;2023-05-16T04:41:02;10.50;99.90
10572;DHT22;5334;48.928;12.704;2023-05-16T04:43:28;10.50;99.90
10572;DHT22;5334;48.928;12.704;2023-05-16T04:45:54;10.70;99.90
10572;DHT22;5334;48.928;12.704;2023-05-16T04:48:20;10.80;99.90
10572;DHT22;5334;48.928;12.704;2023-05-16T04:50:46;11.00;99.90
10572;DHT22;5334;48.928;12.704;2023-05-16T04:53:11;11.10;99.90
10572;DHT22;5334;48.928;12.704;2023-05-16T04:55:39;11.30;99.90
10572;DHT22;5334;48.928;12.704;2023-05-16T04:58:05;11.40;99.90
10572;DHT22;5334;48.928;12.704;2023-05-16T05:00:31;11.50;99.90
10572;DHT22;5334;48.928;12.704;2023-05-16T05:02:57;11.60;99.90
10572;DHT22;5334;48.928;12.704;2023-05-16T05:05:22;11.70;99.90
10572;DHT22;5334;48.928;12.704;2023-05-16T05:07:48;11.70;99.90
10572;DHT22;5334;48.928;12.704;2023-05-16T05:10:14;11.80;99.90
10572;DHT22;5334;48.928;12.704;2023-05-16T05:12:40;11.90;99.90
10572;DHT22;5334;48.928;12.704;2023-05-16T05:15:06;12.00;99.90
10572;DHT22;5334;48.928;12.704;2023-05-16T05:17:32;12.10;99.90
10572;DHT22;5334;48.928;12.704;2023-05-16T05:19:58;12.30;99.90
10572;DHT22;5334;48.928;12.704;2023-05-16T05:22:23;12.40;99.90
10572;DHT22;5334;48.928;12.704;2023-05-16T05:24:49;12.60;99.90
10572;DHT22;5334;48.928;12.704;2023-05-16T05:27:15;12.80;99.90
10572;DHT22;5334;48.928;12.704;2023-05-16T05:29:40;13.00;99.90
10572;DHT22;5334;48.928;12.704;2023-05-16T05:32:06;13.00;99.90
10572;DHT22;5334;48.928;12.704;2023-05-16T05:34:32;13.10;99.90
10572;DHT22;5334;48.928;12.704;2023-05-16T05:36:58;13.10;99.90
10572;DHT22;5334;48.928;12.704;2023-05-16T05:39:24;13.10;99.90
10572;DHT22;5334;48.928;12.704;2023-05-16T05:41:50;13.20;99.90
10572;DHT22;5334;48.928;12.704;2023-05-16T05:44:16;13.30;99.90
10572;DHT22;5334;48.928;12.704;2023-05-16T05:46:42;13.40;99.90
10572;DHT22;5334;48.928;12.704;2023-05-16T05:49:08;13.70;99.90
10572;DHT22;5334;48.928;12.704;2023-05-16T05:51:33;13.90;99.90
10572;DHT22;5334;48.928;12.704;2023-05-16T05:54:00;14.20;99.90
10572;DHT22;5334;48.928;12.704;2023-05-16T05:56:26;14.50;99.90
10572;DHT22;5334;48.928;12.704;2023-05-16T05:58:51;14.70;99.90
10572;DHT22;5334;48.928;12.704;2023-05-16T06:01:17;15.00;99.90
10572;DHT22;5334;48.928;12.704;2023-05-16T06:03:45;15.20;99.90
10572;DHT22;5334;48.928;12.704;2023-05-16T06:06:11;15.30;99.90
10572;DHT22;5334;48.928;12.704;2023-05-16T06:08:37;15.50;99.90
10572;DHT22;5334;48.928;12.704;2023-05-16T06:11:02;15.60;99.90
10572;DHT22;5334;48.928;12.704;2023-05-16T06:13:29;15.60;99.90
10572;DHT22;5334;48.928;12.704;2023-05-16T06:15:54;15.60;99.90
10572;DHT22;5334;48.928;12.704;2023-05-16T06:18:20;15.80;99.90
10572;DHT22;5334;48.928;12.704;2023-05-16T06:20:46;16.00;99.90
10572;DHT22;5334;48.928;12.704;2023-05-16T06:23:12;16.20;99.90
10572;DHT22;5334;48.928;12.704;2023-05-16T06:25:38;16.40;99.90
10572;DHT22;5334;48.928;12.704;2023-05-16T06:28:03;16.70;99.90
10572;DHT22;5334;48.928;12.704;2023-05-16T06:30:29;17.00;99.90
10572;DHT22;5334;48.928;12.704;2023-05-16T06:32:55;17.30;99.90
10572;DHT22;5334;48.928;12.704;2023-05-16T06:37:47;17.70;99.90
10572;DHT22;5334;48.928;12.704;2023-05-16T06:40:12;17.70;99.90
10572;DHT22;5334;48.928;12.704;2023-05-16T06:42:38;17.40;99.90
10572;DHT22;5334;48.928;12.704;2023-05-16T06:45:04;17.20;99.90
10572;DHT22;5334;48.928;12.704;2023-05-16T06:47:31;17.20;99.90
10572;DHT22;5334;48.928;12.704;2023-05-16T06:49:56;17.20;99.90
10572;DHT22;5334;48.928;12.704;2023-05-16T06:52:22;17.50;99.90
10572;DHT22;5334;48.928;12.704;2023-05-16T06:54:48;17.70;99.90
10572;DHT22;5334;48.928;12.704;2023-05-16T06:59:39;18.30;99.90
10572;DHT22;5334;48.928;12.704;2023-05-16T07:04:31;18.40;99.90
10572;DHT22;5334;48.928;12.704;2023-05-16T07:06:58;18.50;99.90
10572;DHT22;5334;48.928;12.704;2023-05-16T07:09:24;18.60;99.90
10572;DHT22;5334;48.928;12.704;2023-05-16T07:11:50;18.30;99.90
10572;DHT22;5334;48.928;12.704;2023-05-16T07:14:16;18.20;99.90
10572;DHT22;5334;48.928;12.704;2023-05-16T07:16:41;18.10;99.90
10572;DHT22;5334;48.928;12.704;2023-05-16T07:19:07;18.00;99.90
10572;DHT22;5334;48.928;12.704;2023-05-16T07:21:33;18.00;99.90
10572;DHT22;5334;48.928;12.704;2023-05-16T07:23:58;18.10;99.90
10572;DHT22;5334;48.928;12.704;2023-05-16T07:26:24;18.20;99.90
10572;DHT22;5334;48.928;12.704;2023-05-16T07:28:51;18.20;99.90
10572;DHT22;5334;48.928;12.704;2023-05-16T07:31:17;18.30;99.90
10572;DHT22;5334;48.928;12.704;2023-05-16T07:33:43;18.80;99.90
10572;DHT22;5334;48.928;12.704;2023-05-16T07:38:38;19.90;99.90
10572;DHT22;5334;48.928;12.704;2023-05-16T07:41:04;20.30;99.90
10572;DHT22;5334;48.928;12.704;2023-05-16T07:48:25;21.00;99.90
10572;DHT22;5334;48.928;12.704;2023-05-16T07:50:51;21.00;99.90
10572;DHT22;5334;48.928;12.704;2023-05-16T08:05:32;19.40;99.90
10572;DHT22;5334;48.928;12.704;2023-05-16T08:54:24;16.90;99.90
10572;DHT22;5334;48.928;12.704;2023-05-16T08:56:51;16.80;99.90
10572;DHT22;5334;48.928;12.704;2023-05-16T08:59:17;16.60;99.90
10572;DHT22;5334;48.928;12.704;2023-05-16T09:01:43;16.30;99.90
10572;DHT22;5334;48.928;12.704;2023-05-16T09:04:09;16.20;99.90
10572;DHT22;5334;48.928;12.704;2023-05-16T09:06:35;16.10;99.90
10572;DHT22;5334;48.928;12.704;2023-05-16T09:09:01;16.20;99.90
10572;DHT22;5334;48.928;12.704;2023-05-16T09:11:28;16.30;99.90
10572;DHT22;5334;48.928;12.704;2023-05-16T09:13:54;16.40;99.90
10572;DHT22;5334;48.928;12.704;2023-05-16T09:16:20;16.50;99.90
10572;DHT22;5334;48.928;12.704;2023-05-16T09:21:19;17.10;99.90
10572;DHT22;5334;48.928;12.704;2023-05-16T09:23:48;17.30;99.90
10572;DHT22;5334;48.928;12.704;2023-05-16T09:26:17;17.30;99.90
10572;DHT22;5334;48.928;12.704;2023-05-16T09:33:55;17.50;99.90
10572;DHT22;5334;48.928;12.704;2023-05-16T09:36:21;17.60;99.90
10572;DHT22;5334;48.928;12.704;2023-05-16T09:38:47;17.60;99.90
10572;DHT22;5334;48.928;12.704;2023-05-16T09:41:12;17.70;99.90
10572;DHT22;5334;48.928;12.704;2023-05-16T09:43:40;18.00;99.90
10572;DHT22;5334;48.928;12.704;2023-05-16T09:46:07;18.40;99.90
10572;DHT22;5334;48.928;12.704;2023-05-16T09:48:33;18.90;99.90
10572;DHT22;5334;48.928;12.704;2023-05-16T09:56:04;19.00;99.90
10572;DHT22;5334;48.928;12.704;2023-05-16T09:58:33;19.00;99.90
10572;DHT22;5334;48.928;12.704;2023-05-16T10:05:53;18.60;99.90
10572;DHT22;5334;48.928;12.704;2023-05-16T10:08:23;18.40;99.90
10572;DHT22;5334;48.928;12.704;2023-05-16T10:10:56;18.40;99.90
10572;DHT22;5334;48.928;12.704;2023-05-16T10:13:23;18.40;99.90
10572;DHT22;5334;48.928;12.704;2023-05-16T10:15:55;18.40;99.90
10572;DHT22;5334;48.928;12.704;2023-05-16T10:18:22;18.50;99.90
10572;DHT22;5334;48.928;12.704;2023-05-16T10:20:52;18.40;99.90
10572;DHT22;5334;48.928;12.704;2023-05-16T10:23:20;18.30;99.90
10572;DHT22;5334;48.928;12.704;2023-05-16T10:25:47;18.20;99.90
10572;DHT22;5334;48.928;12.704;2023-05-16T10:28:14;18.10;99.90
10572;DHT22;5334;48.928;12.704;2023-05-16T10:30:45;18.10;99.90
10572;DHT22;5334;48.928;12.704;2023-05-16T10:33:15;18.00;99.90
10572;DHT22;5334;48.928;12.704;2023-05-16T10:35:42;18.10;99.90
10572;DHT22;5334;48.928;12.704;2023-05-16T10:38:09;18.00;99.90
10572;DHT22;5334;48.928;12.704;2023-05-16T10:40:37;17.80;99.90
10572;DHT22;5334;48.928;12.704;2023-05-16T10:43:05;17.80;99.90
10572;DHT22;5334;48.928;12.704;2023-05-16T10:45:31;17.70;99.90
10572;DHT22;5334;48.928;12.704;2023-05-16T10:48:01;17.70;99.90
10572;DHT22;5334;48.928;12.704;2023-05-16T11:06:24;17.20;99.90
10572;DHT22;5334;48.928;12.704;2023-05-16T11:12:02;17.00;99.90
10572;DHT22;5334;48.928;12.704;2023-05-16T11:17:12;16.90;99.90
10572;DHT22;5334;48.928;12.704;2023-05-16T11:29:28;15.70;99.90
10572;DHT22;5334;48.928;12.704;2023-05-16T11:36:50;15.50;99.90
10572;DHT22;5334;48.928;12.704;2023-05-16T11:39:16;15.50;99.90
10572;DHT22;5334;48.928;12.704;2023-05-16T11:41:43;15.70;99.90
10572;DHT22;5334;48.928;12.704;2023-05-16T11:44:11;15.70;99.90
10572;DHT22;5334;48.928;12.704;2023-05-16T11:46:38;15.70;99.90
10572;DHT22;5334;48.928;12.704;2023-05-16T11:49:08;15.80;99.90
10572;DHT22;5334;48.928;12.704;2023-05-16T11:51:37;15.90;99.90
10572;DHT22;5334;48.928;12.704;2023-05-16T11:54:03;15.90;99.90
10572;DHT22;5334;48.928;12.704;2023-05-16T12:01:33;16.20;99.90
10572;DHT22;5334;48.928;12.704;2023-05-16T12:04:00;16.30;99.90
10572;DHT22;5334;48.928;12.704;2023-05-16T12:06:25;16.20;99.90
10572;DHT22;5334;48.928;12.704;2023-05-16T12:08:51;16.20;99.90
10572;DHT22;5334;48.928;12.704;2023-05-16T12:11:18;16.10;99.90
10572;DHT22;5334;48.928;12.704;2023-05-16T12:13:43;16.10;99.90
10572;DHT22;5334;48.928;12.704;2023-05-16T12:16:11;16.10;99.90
10572;DHT22;5334;48.928;12.704;2023-05-16T12:18:37;16.20;99.90
10572;DHT22;5334;48.928;12.704;2023-05-16T12:21:06;16.30;99.90
10572;DHT22;5334;48.928;12.704;2023-05-16T12:23:32;16.30;99.90
10572;DHT22;5334;48.928;12.704;2023-05-16T12:25:58;16.40;99.90
10572;DHT22;5334;48.928;12.704;2023-05-16T12:28:32;16.40;99.90
10572;DHT22;5334;48.928;12.704;2023-05-16T12:30:59;16.50;99.90
10572;DHT22;5334;48.928;12.704;2023-05-16T12:33:24;16.50;99.90
10572;DHT22;5334;48.928;12.704;2023-05-16T12:35:50;16.40;99.90
10572;DHT22;5334;48.928;12.704;2023-05-16T12:38:18;16.20;99.90
10572;DHT22;5334;48.928;12.704;2023-05-16T12:40:45;16.20;99.90
10572;DHT22;5334;48.928;12.704;2023-05-16T12:43:21;16.10;99.90
10572;DHT22;5334;48.928;12.704;2023-05-16T12:45:51;16.00;99.90
10572;DHT22;5334;48.928;12.704;2023-05-16T12:48:17;15.90;99.90
10572;DHT22;5334;48.928;12.704;2023-05-16T12:50:43;15.80;99.90
10572;DHT22;5334;48.928;12.704;2023-05-16T12:53:15;15.70;99.90
10572;DHT22;5334;48.928;12.704;2023-05-16T12:55:42;15.70;99.90
10572;DHT22;5334;48.928;12.704;2023-05-16T22:31:52;10.80;99.90
10572;DHT22;5334;48.928;12.704;2023-05-16T22:34:18;10.80;99.90
10572;DHT22;5334;48.928;12.704;2023-05-16T22:58:38;10.80;99.90
10572;DHT22;5334;48.928;12.704;2023-05-16T23:01:04;10.80;99.90
10572;DHT22;5334;48.928;12.704;2023-05-16T23:03:30;10.70;99.90
10572;DHT22;5334;48.928;12.704;2023-05-16T23:05:55;10.70;99.90
10572;DHT22;5334;48.928;12.704;2023-05-16T23:08:21;10.60;99.90
10572;DHT22;5334;48.928;12.704;2023-05-16T23:10:47;10.60;99.90
10572;DHT22;5334;48.928;12.704;2023-05-16T23:13:13;10.60;99.90
10572;DHT22;5334;48.928;12.704;2023-05-16T23:15:38;10.60;99.90
10572;DHT22;5334;48.928;12.704;2023-05-16T23:18:04;10.60;99.90
10572;DHT22;5334;48.928;12.704;2023-05-16T23:20:30;10.60;99.90
10572;DHT22;5334;48.928;12.704;2023-05-16T23:22:56;10.70;99.90
10572;DHT22;5334;48.928;12.704;2023-05-16T23:25:22;10.60;99.90
10572;DHT22;5334;48.928;12.704;2023-05-16T23:30:14;10.60;99.90
10572;DHT22;5334;48.928;12.704;2023-05-16T23:32:40;10.60;99.90
10572;DHT22;5334;48.928;12.704;2023-05-16T23:35:06;10.60;99.90
10572;DHT22;5334;48.928;12.704;2023-05-16T23:37:32;10.40;99.90
10572;DHT22;5334;48.928;12.704;2023-05-16T23:42:24;10.60;99.90
10572;DHT22;5334;48.928;12.704;2023-05-16T23:44:49;10.60;99.90
10572;DHT22;5334;48.928;12.704;2023-05-16T23:47:15;10.60;99.90
10572;DHT22;5334;48.928;12.704;2023-05-16T23:49:41;10.60;99.90
10572;DHT22;5334;48.928;12.704;2023-05-16T23:54:33;9.70;99.90
10572;DHT22;5334;48.928;12.704;2023-05-16T23:56:59;10.60;99.90
